sensor_id;sensor_type;location;lat;lon;timestamp;temperature;humidity
2407;DHT22;37709;53.480;9.688;2022-07-23T00:00:32;15.00;99.90
2407;DHT22;37709;53.480;9.688;2022-07-23T00:03:06;15.00;99.90
2407;DHT22;37709;53.480;9.688;2022-07-23T00:05:33;14.90;99.90
2407;DHT22;37709;53.480;9.688;2022-07-23T00:08:03;14.90;99.90
2407;DHT22;37709;53.480;9.688;2022-07-23T00:10:32;14.90;99.90
2407;DHT22;37709;53.480;9.688;2022-07-23T00:13:00;14.80;99.90
2407;DHT22;37709;53.480;9.688;2022-07-23T00:15:28;14.80;99.90
2407;DHT22;37709;53.480;9.688;2022-07-23T00:17:56;14.80;99.90
2407;DHT22;37709;53.480;9.688;2022-07-23T00:20:23;14.80;99.90
2407;DHT22;37709;53.480;9.688;2022-07-23T00:22:53;14.70;99.90
2407;DHT22;37709;53.480;9.688;2022-07-23T00:25:24;14.70;99.90
2407;DHT22;37709;53.480;9.688;2022-07-23T00:27:58;14.70;99.90
2407;DHT22;37709;53.480;9.688;2022-07-23T00:30:27;14.70;99.90
2407;DHT22;37709;53.480;9.688;2022-07-23T00:33:06;14.70;99.90
2407;DHT22;37709;53.480;9.688;2022-07-23T00:35:37;14.70;99.90
2407;DHT22;37709;53.480;9.688;2022-07-23T00:38:05;14.70;99.90
2407;DHT22;37709;53.480;9.688;2022-07-23T00:40:32;14.70;99.90
2407;DHT22;37709;53.480;9.688;2022-07-23T00:43:00;14.70;99.90
2407;DHT22;37709;53.480;9.688;2022-07-23T00:45:28;14.70;99.90
2407;DHT22;37709;53.480;9.688;2022-07-23T00:47:56;14.60;99.90
2407;DHT22;37709;53.480;9.688;2022-07-23T00:50:24;14.60;99.90
2407;DHT22;37709;53.480;9.688;2022-07-23T00:52:54;14.60;99.90
2407;DHT22;37709;53.480;9.688;2022-07-23T00:55:21;14.50;99.90
2407;DHT22;37709;53.480;9.688;2022-07-23T00:57:50;14.40;99.90
2407;DHT22;37709;53.480;9.688;2022-07-23T01:00:17;14.40;99.90
2407;DHT22;37709;53.480;9.688;2022-07-23T01:02:45;14.40;99.90
2407;DHT22;37709;53.480;9.688;2022-07-23T01:05:15;14.40;99.90
2407;DHT22;37709;53.480;9.688;2022-07-23T01:07:43;14.40;99.90
2407;DHT22;37709;53.480;9.688;2022-07-23T01:10:11;14.40;99.90
2407;DHT22;37709;53.480;9.688;2022-07-23T01:13:07;14.40;99.90
2407;DHT22;37709;53.480;9.688;2022-07-23T01:15:37;14.40;99.90
2407;DHT22;37709;53.480;9.688;2022-07-23T01:18:06;14.40;99.90
2407;DHT22;37709;53.480;9.688;2022-07-23T01:20:35;14.40;99.90
2407;DHT22;37709;53.480;9.688;2022-07-23T01:23:02;14.40;99.90
2407;DHT22;37709;53.480;9.688;2022-07-23T01:25:30;14.50;99.90
2407;DHT22;37709;53.480;9.688;2022-07-23T01:28:01;14.50;99.90
2407;DHT22;37709;53.480;9.688;2022-07-23T01:30:29;14.50;99.90
2407;DHT22;37709;53.480;9.688;2022-07-23T01:32:58;14.40;99.90
2407;DHT22;37709;53.480;9.688;2022-07-23T01:35:27;14.40;99.90
2407;DHT22;37709;53.480;9.688;2022-07-23T01:37:58;14.40;99.90
2407;DHT22;37709;53.480;9.688;2022-07-23T01:40:25;14.40;99.90
2407;DHT22;37709;53.480;9.688;2022-07-23T01:42:54;14.40;99.90
2407;DHT22;37709;53.480;9.688;2022-07-23T01:45:22;14.40;99.90
2407;DHT22;37709;53.480;9.688;2022-07-23T01:47:52;14.30;99.90
2407;DHT22;37709;53.480;9.688;2022-07-23T01:50:23;14.30;99.90
2407;DHT22;37709;53.480;9.688;2022-07-23T01:53:23;14.30;99.90
2407;DHT22;37709;53.480;9.688;2022-07-23T01:55:51;14.40;99.90
2407;DHT22;37709;53.480;9.688;2022-07-23T01:58:18;14.40;99.90
2407;DHT22;37709;53.480;9.688;2022-07-23T02:00:46;14.40;99.90
2407;DHT22;37709;53.480;9.688;2022-07-23T02:03:13;14.40;99.90
2407;DHT22;37709;53.480;9.688;2022-07-23T02:05:41;14.30;99.90
2407;DHT22;37709;53.480;9.688;2022-07-23T02:08:08;14.30;99.90
2407;DHT22;37709;53.480;9.688;2022-07-23T02:10:36;14.20;99.90
2407;DHT22;37709;53.480;9.688;2022-07-23T02:13:04;14.20;99.90
2407;DHT22;37709;53.480;9.688;2022-07-23T02:15:32;14.10;99.90
2407;DHT22;37709;53.480;9.688;2022-07-23T02:18:00;14.10;99.90
2407;DHT22;37709;53.480;9.688;2022-07-23T02:20:27;14.00;99.90
2407;DHT22;37709;53.480;9.688;2022-07-23T02:22:54;14.00;99.90
2407;DHT22;37709;53.480;9.688;2022-07-23T02:25:22;13.90;99.90
2407;DHT22;37709;53.480;9.688;2022-07-23T02:27:54;13.90;99.90
2407;DHT22;37709;53.480;9.688;2022-07-23T02:30:21;13.80;99.90
2407;DHT22;37709;53.480;9.688;2022-07-23T02:32:49;13.80;99.90
2407;DHT22;37709;53.480;9.688;2022-07-23T02:35:16;13.70;99.90
2407;DHT22;37709;53.480;9.688;2022-07-23T02:37:44;13.50;99.90
2407;DHT22;37709;53.480;9.688;2022-07-23T02:40:11;13.50;99.90
2407;DHT22;37709;53.480;9.688;2022-07-23T02:42:41;13.40;99.90
2407;DHT22;37709;53.480;9.688;2022-07-23T02:45:09;13.30;99.90
2407;DHT22;37709;53.480;9.688;2022-07-23T02:47:36;13.20;99.90
2407;DHT22;37709;53.480;9.688;2022-07-23T02:50:04;13.00;99.90
2407;DHT22;37709;53.480;9.688;2022-07-23T02:52:32;12.90;99.90
2407;DHT22;37709;53.480;9.688;2022-07-23T02:55:01;12.80;99.90
2407;DHT22;37709;53.480;9.688;2022-07-23T02:57:29;12.80;99.90
2407;DHT22;37709;53.480;9.688;2022-07-23T02:59:57;12.60;99.90
2407;DHT22;37709;53.480;9.688;2022-07-23T03:02:24;12.60;99.90
2407;DHT22;37709;53.480;9.688;2022-07-23T03:04:52;12.50;99.90
2407;DHT22;37709;53.480;9.688;2022-07-23T03:07:20;12.50;99.90
2407;DHT22;37709;53.480;9.688;2022-07-23T03:09:48;12.50;99.90
2407;DHT22;37709;53.480;9.688;2022-07-23T03:12:16;12.30;99.90
2407;DHT22;37709;53.480;9.688;2022-07-23T03:14:43;12.20;99.90
2407;DHT22;37709;53.480;9.688;2022-07-23T03:17:36;12.20;99.90
2407;DHT22;37709;53.480;9.688;2022-07-23T03:20:04;12.20;99.90
2407;DHT22;37709;53.480;9.688;2022-07-23T03:22:31;12.20;99.90
2407;DHT22;37709;53.480;9.688;2022-07-23T03:24:59;12.10;99.90
2407;DHT22;37709;53.480;9.688;2022-07-23T03:27:30;12.00;99.90
2407;DHT22;37709;53.480;9.688;2022-07-23T03:29:59;12.00;99.90
2407;DHT22;37709;53.480;9.688;2022-07-23T03:32:27;12.00;99.90
2407;DHT22;37709;53.480;9.688;2022-07-23T03:34:55;12.00;99.90
2407;DHT22;37709;53.480;9.688;2022-07-23T03:37:24;12.10;99.90
2407;DHT22;37709;53.480;9.688;2022-07-23T03:39:52;12.20;99.90
2407;DHT22;37709;53.480;9.688;2022-07-23T03:42:19;12.30;99.90
2407;DHT22;37709;53.480;9.688;2022-07-23T03:44:47;12.30;99.90
2407;DHT22;37709;53.480;9.688;2022-07-23T03:47:15;12.40;99.90
2407;DHT22;37709;53.480;9.688;2022-07-23T03:49:44;12.50;99.90
2407;DHT22;37709;53.480;9.688;2022-07-23T03:52:11;12.70;99.90
2407;DHT22;37709;53.480;9.688;2022-07-23T03:54:39;12.80;99.90
2407;DHT22;37709;53.480;9.688;2022-07-23T03:57:06;12.90;99.90
2407;DHT22;37709;53.480;9.688;2022-07-23T03:59:34;13.10;99.90
2407;DHT22;37709;53.480;9.688;2022-07-23T04:02:02;13.10;99.90
2407;DHT22;37709;53.480;9.688;2022-07-23T04:04:29;13.20;99.90
2407;DHT22;37709;53.480;9.688;2022-07-23T04:06:57;13.30;99.90
2407;DHT22;37709;53.480;9.688;2022-07-23T04:09:26;13.40;99.90
2407;DHT22;37709;53.480;9.688;2022-07-23T04:11:54;13.50;99.90
2407;DHT22;37709;53.480;9.688;2022-07-23T04:14:21;13.60;99.90
2407;DHT22;37709;53.480;9.688;2022-07-23T04:16:49;13.60;99.90
2407;DHT22;37709;53.480;9.688;2022-07-23T04:19:16;13.60;99.90
2407;DHT22;37709;53.480;9.688;2022-07-23T04:21:58;13.70;99.90
2407;DHT22;37709;53.480;9.688;2022-07-23T04:24:26;13.70;99.90
2407;DHT22;37709;53.480;9.688;2022-07-23T04:26:53;13.70;99.90
2407;DHT22;37709;53.480;9.688;2022-07-23T04:29:21;13.70;99.90
2407;DHT22;37709;53.480;9.688;2022-07-23T04:31:49;13.70;99.90
2407;DHT22;37709;53.480;9.688;2022-07-23T04:34:18;13.70;99.90
2407;DHT22;37709;53.480;9.688;2022-07-23T04:36:46;13.70;99.90
2407;DHT22;37709;53.480;9.688;2022-07-23T04:39:14;13.80;99.90
2407;DHT22;37709;53.480;9.688;2022-07-23T04:41:42;13.80;99.90
2407;DHT22;37709;53.480;9.688;2022-07-23T04:44:09;13.80;99.90
2407;DHT22;37709;53.480;9.688;2022-07-23T04:46:37;13.90;99.90
2407;DHT22;37709;53.480;9.688;2022-07-23T04:49:06;13.90;99.90
2407;DHT22;37709;53.480;9.688;2022-07-23T04:51:34;14.00;99.90
2407;DHT22;37709;53.480;9.688;2022-07-23T04:54:02;14.00;99.90
2407;DHT22;37709;53.480;9.688;2022-07-23T04:56:30;14.10;99.90
2407;DHT22;37709;53.480;9.688;2022-07-23T04:58:58;14.10;99.90
2407;DHT22;37709;53.480;9.688;2022-07-23T05:01:26;14.20;99.90
2407;DHT22;37709;53.480;9.688;2022-07-23T05:03:53;14.30;99.90
2407;DHT22;37709;53.480;9.688;2022-07-23T05:06:23;14.30;99.90
2407;DHT22;37709;53.480;9.688;2022-07-23T05:08:50;14.40;99.90
2407;DHT22;37709;53.480;9.688;2022-07-23T05:11:18;14.40;99.90
2407;DHT22;37709;53.480;9.688;2022-07-23T05:13:54;14.40;99.90
2407;DHT22;37709;53.480;9.688;2022-07-23T05:16:22;14.40;99.90
2407;DHT22;37709;53.480;9.688;2022-07-23T05:18:52;14.50;99.90
2407;DHT22;37709;53.480;9.688;2022-07-23T05:21:20;14.50;99.90
2407;DHT22;37709;53.480;9.688;2022-07-23T05:23:47;14.50;99.90
2407;DHT22;37709;53.480;9.688;2022-07-23T05:26:15;14.60;99.90
2407;DHT22;37709;53.480;9.688;2022-07-23T05:28:43;14.60;99.90
2407;DHT22;37709;53.480;9.688;2022-07-23T05:31:17;14.60;99.90
2407;DHT22;37709;53.480;9.688;2022-07-23T05:33:46;14.60;99.90
2407;DHT22;37709;53.480;9.688;2022-07-23T05:36:14;14.60;99.90
2407;DHT22;37709;53.480;9.688;2022-07-23T05:38:51;14.60;99.90
2407;DHT22;37709;53.480;9.688;2022-07-23T05:41:18;14.60;99.90
2407;DHT22;37709;53.480;9.688;2022-07-23T05:43:46;14.60;99.90
2407;DHT22;37709;53.480;9.688;2022-07-23T05:46:14;14.60;99.90
2407;DHT22;37709;53.480;9.688;2022-07-23T05:48:46;14.60;99.90
2407;DHT22;37709;53.480;9.688;2022-07-23T05:51:39;14.70;99.90
2407;DHT22;37709;53.480;9.688;2022-07-23T05:54:06;14.80;99.90
2407;DHT22;37709;53.480;9.688;2022-07-23T05:56:37;14.90;99.90
2407;DHT22;37709;53.480;9.688;2022-07-23T05:59:05;15.00;99.90
2407;DHT22;37709;53.480;9.688;2022-07-23T06:01:33;15.10;99.90
2407;DHT22;37709;53.480;9.688;2022-07-23T06:04:06;15.10;99.90
2407;DHT22;37709;53.480;9.688;2022-07-23T06:06:37;15.20;99.90
2407;DHT22;37709;53.480;9.688;2022-07-23T06:09:07;15.40;99.90
2407;DHT22;37709;53.480;9.688;2022-07-23T06:11:35;15.60;99.90
2407;DHT22;37709;53.480;9.688;2022-07-23T06:14:03;15.90;99.90
2407;DHT22;37709;53.480;9.688;2022-07-23T06:16:45;16.10;99.90
2407;DHT22;37709;53.480;9.688;2022-07-23T06:19:13;16.30;99.90
2407;DHT22;37709;53.480;9.688;2022-07-23T06:21:41;16.60;99.90
2407;DHT22;37709;53.480;9.688;2022-07-23T06:24:15;16.80;99.90
2407;DHT22;37709;53.480;9.688;2022-07-23T06:26:43;17.10;99.90
2407;DHT22;37709;53.480;9.688;2022-07-23T06:29:10;17.10;99.90
2407;DHT22;37709;53.480;9.688;2022-07-23T06:31:38;17.20;99.90
2407;DHT22;37709;53.480;9.688;2022-07-23T06:34:08;17.30;99.90
2407;DHT22;37709;53.480;9.688;2022-07-23T06:36:36;17.60;99.90
2407;DHT22;37709;53.480;9.688;2022-07-23T06:39:06;17.90;99.90
2407;DHT22;37709;53.480;9.688;2022-07-23T06:41:35;18.00;99.90
2407;DHT22;37709;53.480;9.688;2022-07-23T06:44:03;18.00;99.90
2407;DHT22;37709;53.480;9.688;2022-07-23T06:46:34;18.00;99.90
2407;DHT22;37709;53.480;9.688;2022-07-23T06:49:01;17.90;99.90
2407;DHT22;37709;53.480;9.688;2022-07-23T06:51:33;17.90;99.90
2407;DHT22;37709;53.480;9.688;2022-07-23T06:54:01;17.80;99.90
2407;DHT22;37709;53.480;9.688;2022-07-23T06:56:29;17.90;99.90
2407;DHT22;37709;53.480;9.688;2022-07-23T06:58:56;18.20;99.90
2407;DHT22;37709;53.480;9.688;2022-07-23T07:01:26;18.40;99.90
2407;DHT22;37709;53.480;9.688;2022-07-23T07:03:54;18.40;99.90
2407;DHT22;37709;53.480;9.688;2022-07-23T07:06:21;18.40;99.90
2407;DHT22;37709;53.480;9.688;2022-07-23T07:08:50;18.40;99.90
2407;DHT22;37709;53.480;9.688;2022-07-23T07:11:18;18.50;99.90
2407;DHT22;37709;53.480;9.688;2022-07-23T07:13:46;18.70;99.90
2407;DHT22;37709;53.480;9.688;2022-07-23T07:16:14;19.20;99.90
2407;DHT22;37709;53.480;9.688;2022-07-23T07:18:41;20.00;99.90
2407;DHT22;37709;53.480;9.688;2022-07-23T07:21:09;20.40;99.90
2407;DHT22;37709;53.480;9.688;2022-07-23T07:23:37;20.60;99.90
2407;DHT22;37709;53.480;9.688;2022-07-23T07:26:05;21.70;99.90
2407;DHT22;37709;53.480;9.688;2022-07-23T07:28:32;23.00;99.90
2407;DHT22;37709;53.480;9.688;2022-07-23T07:31:00;22.60;99.70
2407;DHT22;37709;53.480;9.688;2022-07-23T07:33:29;22.40;99.90
2407;DHT22;37709;53.480;9.688;2022-07-23T07:35:56;22.30;99.60
2407;DHT22;37709;53.480;9.688;2022-07-23T07:38:24;22.60;99.30
2407;DHT22;37709;53.480;9.688;2022-07-23T07:40:52;22.50;98.60
2407;DHT22;37709;53.480;9.688;2022-07-23T07:43:20;21.80;99.40
2407;DHT22;37709;53.480;9.688;2022-07-23T07:45:47;21.00;99.90
2407;DHT22;37709;53.480;9.688;2022-07-23T07:48:15;20.30;99.90
2407;DHT22;37709;53.480;9.688;2022-07-23T07:50:43;19.70;99.90
2407;DHT22;37709;53.480;9.688;2022-07-23T07:53:12;19.40;99.90
2407;DHT22;37709;53.480;9.688;2022-07-23T07:55:40;20.10;99.90
2407;DHT22;37709;53.480;9.688;2022-07-23T07:58:08;22.70;99.20
2407;DHT22;37709;53.480;9.688;2022-07-23T08:00:35;23.70;97.60
2407;DHT22;37709;53.480;9.688;2022-07-23T08:03:03;23.20;97.30
2407;DHT22;37709;53.480;9.688;2022-07-23T08:05:31;22.50;97.90
2407;DHT22;37709;53.480;9.688;2022-07-23T08:07:59;21.40;99.80
2407;DHT22;37709;53.480;9.688;2022-07-23T08:10:28;20.30;99.90
2407;DHT22;37709;53.480;9.688;2022-07-23T08:12:57;19.60;99.90
2407;DHT22;37709;53.480;9.688;2022-07-23T08:15:26;19.60;99.90
2407;DHT22;37709;53.480;9.688;2022-07-23T08:17:55;19.90;99.90
2407;DHT22;37709;53.480;9.688;2022-07-23T08:20:24;20.40;99.90
2407;DHT22;37709;53.480;9.688;2022-07-23T08:22:54;21.00;99.90
2407;DHT22;37709;53.480;9.688;2022-07-23T08:25:27;21.60;99.90
2407;DHT22;37709;53.480;9.688;2022-07-23T08:27:56;22.30;99.90
2407;DHT22;37709;53.480;9.688;2022-07-23T08:30:24;22.70;98.90
2407;DHT22;37709;53.480;9.688;2022-07-23T08:32:53;23.40;97.00
2407;DHT22;37709;53.480;9.688;2022-07-23T08:35:29;25.40;95.50
2407;DHT22;37709;53.480;9.688;2022-07-23T08:37:58;26.70;92.30
2407;DHT22;37709;53.480;9.688;2022-07-23T08:40:27;26.10;90.40
2407;DHT22;37709;53.480;9.688;2022-07-23T08:42:55;25.90;90.50
2407;DHT22;37709;53.480;9.688;2022-07-23T08:45:24;26.40;88.90
2407;DHT22;37709;53.480;9.688;2022-07-23T08:47:55;26.10;88.10
2407;DHT22;37709;53.480;9.688;2022-07-23T08:50:24;25.40;89.10
2407;DHT22;37709;53.480;9.688;2022-07-23T08:52:52;25.30;89.40
2407;DHT22;37709;53.480;9.688;2022-07-23T08:55:22;24.50;90.30
2407;DHT22;37709;53.480;9.688;2022-07-23T08:57:51;23.60;90.70
2407;DHT22;37709;53.480;9.688;2022-07-23T09:00:20;23.00;91.70
2407;DHT22;37709;53.480;9.688;2022-07-23T09:02:48;23.00;91.50
2407;DHT22;37709;53.480;9.688;2022-07-23T09:05:17;23.10;91.30
2407;DHT22;37709;53.480;9.688;2022-07-23T09:10:55;23.30;90.80
2407;DHT22;37709;53.480;9.688;2022-07-23T09:16:26;27.10;87.10
2407;DHT22;37709;53.480;9.688;2022-07-23T09:19:02;28.70;80.80
2407;DHT22;37709;53.480;9.688;2022-07-23T09:21:32;29.80;74.90
2407;DHT22;37709;53.480;9.688;2022-07-23T09:24:10;29.40;72.70
2407;DHT22;37709;53.480;9.688;2022-07-23T09:26:43;28.40;74.20
2407;DHT22;37709;53.480;9.688;2022-07-23T09:29:25;27.10;76.80
2407;DHT22;37709;53.480;9.688;2022-07-23T09:31:55;26.00;78.70
2407;DHT22;37709;53.480;9.688;2022-07-23T09:36:58;24.30;91.40
2407;DHT22;37709;53.480;9.688;2022-07-23T09:39:35;23.20;86.80
2407;DHT22;37709;53.480;9.688;2022-07-23T09:42:32;22.30;90.00
2407;DHT22;37709;53.480;9.688;2022-07-23T09:45:01;21.40;91.30
2407;DHT22;37709;53.480;9.688;2022-07-23T09:47:31;21.10;92.20
2407;DHT22;37709;53.480;9.688;2022-07-23T09:52:35;21.20;91.90
2407;DHT22;37709;53.480;9.688;2022-07-23T09:55:05;21.20;90.90
2407;DHT22;37709;53.480;9.688;2022-07-23T09:57:34;21.50;91.00
2407;DHT22;37709;53.480;9.688;2022-07-23T10:00:04;22.00;90.00
2407;DHT22;37709;53.480;9.688;2022-07-23T10:02:33;22.80;87.10
2407;DHT22;37709;53.480;9.688;2022-07-23T10:05:20;25.20;84.10
2407;DHT22;37709;53.480;9.688;2022-07-23T10:08:02;26.40;77.40
2407;DHT22;37709;53.480;9.688;2022-07-23T10:10:53;26.60;76.90
2407;DHT22;37709;53.480;9.688;2022-07-23T10:13:40;27.80;73.30
2407;DHT22;37709;53.480;9.688;2022-07-23T10:16:31;28.10;71.80
2407;DHT22;37709;53.480;9.688;2022-07-23T10:18:59;27.70;73.20
2407;DHT22;37709;53.480;9.688;2022-07-23T10:21:40;27.20;72.30
2407;DHT22;37709;53.480;9.688;2022-07-23T10:24:41;26.70;74.80
2407;DHT22;37709;53.480;9.688;2022-07-23T10:33:27;27.60;74.80
2407;DHT22;37709;53.480;9.688;2022-07-23T10:36:18;27.90;72.40
2407;DHT22;37709;53.480;9.688;2022-07-23T10:41:37;27.90;70.80
2407;DHT22;37709;53.480;9.688;2022-07-23T10:44:16;28.20;67.20
2407;DHT22;37709;53.480;9.688;2022-07-23T10:46:58;28.10;67.30
2407;DHT22;37709;53.480;9.688;2022-07-23T10:49:39;28.40;67.50
2407;DHT22;37709;53.480;9.688;2022-07-23T10:57:30;28.10;64.30
2407;DHT22;37709;53.480;9.688;2022-07-23T11:02:45;30.90;61.10
2407;DHT22;37709;53.480;9.688;2022-07-23T11:05:15;30.70;60.30
2407;DHT22;37709;53.480;9.688;2022-07-23T11:32:18;27.80;64.70
2407;DHT22;37709;53.480;9.688;2022-07-23T11:34:48;27.80;63.30
2407;DHT22;37709;53.480;9.688;2022-07-23T11:39:56;28.40;64.60
2407;DHT22;37709;53.480;9.688;2022-07-23T11:42:24;29.00;64.00
2407;DHT22;37709;53.480;9.688;2022-07-23T11:44:57;30.80;60.40
2407;DHT22;37709;53.480;9.688;2022-07-23T11:47:27;29.60;60.20
2407;DHT22;37709;53.480;9.688;2022-07-23T11:50:01;28.50;62.90
2407;DHT22;37709;53.480;9.688;2022-07-23T11:52:29;27.70;65.00
2407;DHT22;37709;53.480;9.688;2022-07-23T11:55:04;27.30;66.80
2407;DHT22;37709;53.480;9.688;2022-07-23T11:57:34;27.50;67.60
2407;DHT22;37709;53.480;9.688;2022-07-23T12:00:16;28.10;66.50
2407;DHT22;37709;53.480;9.688;2022-07-23T12:02:48;29.40;63.80
2407;DHT22;37709;53.480;9.688;2022-07-23T12:05:18;30.00;61.80
2407;DHT22;37709;53.480;9.688;2022-07-23T12:07:48;30.70;61.80
2407;DHT22;37709;53.480;9.688;2022-07-23T12:13:04;31.80;58.10
2407;DHT22;37709;53.480;9.688;2022-07-23T12:15:37;30.70;58.30
2407;DHT22;37709;53.480;9.688;2022-07-23T12:18:09;29.80;59.80
2407;DHT22;37709;53.480;9.688;2022-07-23T12:20:39;28.60;60.90
2407;DHT22;37709;53.480;9.688;2022-07-23T12:23:10;27.70;63.00
2407;DHT22;37709;53.480;9.688;2022-07-23T12:25:41;26.50;65.80
2407;DHT22;37709;53.480;9.688;2022-07-23T12:28:12;25.50;67.90
2407;DHT22;37709;53.480;9.688;2022-07-23T12:30:42;25.10;70.80
2407;DHT22;37709;53.480;9.688;2022-07-23T12:33:12;25.00;71.70
2407;DHT22;37709;53.480;9.688;2022-07-23T12:35:45;25.50;70.70
2407;DHT22;37709;53.480;9.688;2022-07-23T12:38:16;26.20;70.40
2407;DHT22;37709;53.480;9.688;2022-07-23T12:40:45;26.40;69.60
2407;DHT22;37709;53.480;9.688;2022-07-23T12:43:22;26.10;68.90
2407;DHT22;37709;53.480;9.688;2022-07-23T12:45:53;25.50;71.20
2407;DHT22;37709;53.480;9.688;2022-07-23T12:48:29;24.80;72.80
2407;DHT22;37709;53.480;9.688;2022-07-23T12:51:08;24.50;73.90
2407;DHT22;37709;53.480;9.688;2022-07-23T12:53:49;25.40;73.10
2407;DHT22;37709;53.480;9.688;2022-07-23T12:56:20;25.70;70.50
2407;DHT22;37709;53.480;9.688;2022-07-23T12:58:56;25.80;70.40
2407;DHT22;37709;53.480;9.688;2022-07-23T13:01:35;27.00;69.30
2407;DHT22;37709;53.480;9.688;2022-07-23T13:06:57;27.60;66.40
2407;DHT22;37709;53.480;9.688;2022-07-23T13:09:28;28.50;64.50
2407;DHT22;37709;53.480;9.688;2022-07-23T13:12:00;27.20;65.50
2407;DHT22;37709;53.480;9.688;2022-07-23T13:14:28;26.00;68.20
2407;DHT22;37709;53.480;9.688;2022-07-23T13:16:56;25.40;70.70
2407;DHT22;37709;53.480;9.688;2022-07-23T13:19:26;25.10;71.40
2407;DHT22;37709;53.480;9.688;2022-07-23T13:21:54;25.10;71.30
2407;DHT22;37709;53.480;9.688;2022-07-23T13:24:22;26.10;69.50
2407;DHT22;37709;53.480;9.688;2022-07-23T13:26:49;26.80;67.70
2407;DHT22;37709;53.480;9.688;2022-07-23T13:29:19;27.00;67.60
2407;DHT22;37709;53.480;9.688;2022-07-23T13:31:47;26.80;67.90
2407;DHT22;37709;53.480;9.688;2022-07-23T13:34:17;26.40;67.00
2407;DHT22;37709;53.480;9.688;2022-07-23T13:36:46;26.40;67.40
2407;DHT22;37709;53.480;9.688;2022-07-23T13:39:14;26.00;68.40
2407;DHT22;37709;53.480;9.688;2022-07-23T13:41:41;25.70;69.40
2407;DHT22;37709;53.480;9.688;2022-07-23T13:44:17;25.50;70.90
2407;DHT22;37709;53.480;9.688;2022-07-23T13:46:49;25.30;69.10
2407;DHT22;37709;53.480;9.688;2022-07-23T13:49:16;25.80;67.80
2407;DHT22;37709;53.480;9.688;2022-07-23T13:51:46;29.10;62.70
2407;DHT22;37709;53.480;9.688;2022-07-23T13:54:14;30.30;59.80
2407;DHT22;37709;53.480;9.688;2022-07-23T13:56:43;31.70;56.70
2407;DHT22;37709;53.480;9.688;2022-07-23T13:59:10;32.30;53.90
2407;DHT22;37709;53.480;9.688;2022-07-23T14:01:38;30.80;56.40
2407;DHT22;37709;53.480;9.688;2022-07-23T14:04:25;28.90;58.30
2407;DHT22;37709;53.480;9.688;2022-07-23T14:06:53;27.80;60.50
2407;DHT22;37709;53.480;9.688;2022-07-23T14:09:21;28.80;58.90
2407;DHT22;37709;53.480;9.688;2022-07-23T14:11:49;28.00;60.40
2407;DHT22;37709;53.480;9.688;2022-07-23T14:14:19;27.80;61.50
2407;DHT22;37709;53.480;9.688;2022-07-23T14:16:47;27.60;60.90
2407;DHT22;37709;53.480;9.688;2022-07-23T14:19:14;28.60;59.40
2407;DHT22;37709;53.480;9.688;2022-07-23T14:21:42;28.00;58.60
2407;DHT22;37709;53.480;9.688;2022-07-23T14:24:10;28.50;58.70
2407;DHT22;37709;53.480;9.688;2022-07-23T14:26:38;30.70;56.30
2407;DHT22;37709;53.480;9.688;2022-07-23T14:29:05;29.90;57.00
2407;DHT22;37709;53.480;9.688;2022-07-23T14:31:35;28.80;59.50
2407;DHT22;37709;53.480;9.688;2022-07-23T14:34:03;28.30;60.30
2407;DHT22;37709;53.480;9.688;2022-07-23T14:36:30;27.90;60.50
2407;DHT22;37709;53.480;9.688;2022-07-23T14:38:58;27.30;60.80
2407;DHT22;37709;53.480;9.688;2022-07-23T14:41:27;26.70;63.60
2407;DHT22;37709;53.480;9.688;2022-07-23T14:43:56;26.30;63.10
2407;DHT22;37709;53.480;9.688;2022-07-23T14:46:24;25.70;62.50
2407;DHT22;37709;53.480;9.688;2022-07-23T14:48:51;25.80;62.80
2407;DHT22;37709;53.480;9.688;2022-07-23T14:51:19;25.80;62.70
2407;DHT22;37709;53.480;9.688;2022-07-23T14:53:46;25.80;63.00
2407;DHT22;37709;53.480;9.688;2022-07-23T14:56:14;26.60;60.60
2407;DHT22;37709;53.480;9.688;2022-07-23T14:58:42;26.30;59.90
2407;DHT22;37709;53.480;9.688;2022-07-23T15:01:11;26.80;59.70
2407;DHT22;37709;53.480;9.688;2022-07-23T15:03:39;26.80;59.50
2407;DHT22;37709;53.480;9.688;2022-07-23T15:06:10;25.90;62.80
2407;DHT22;37709;53.480;9.688;2022-07-23T15:08:39;26.00;63.10
2407;DHT22;37709;53.480;9.688;2022-07-23T15:11:06;25.60;63.10
2407;DHT22;37709;53.480;9.688;2022-07-23T15:13:38;25.50;64.80
2407;DHT22;37709;53.480;9.688;2022-07-23T15:16:06;25.50;64.30
2407;DHT22;37709;53.480;9.688;2022-07-23T15:18:37;25.30;64.20
2407;DHT22;37709;53.480;9.688;2022-07-23T15:21:05;25.30;66.30
2407;DHT22;37709;53.480;9.688;2022-07-23T15:23:34;25.60;65.70
2407;DHT22;37709;53.480;9.688;2022-07-23T15:26:02;25.40;65.40
2407;DHT22;37709;53.480;9.688;2022-07-23T15:28:30;25.30;65.70
2407;DHT22;37709;53.480;9.688;2022-07-23T15:30:58;25.10;64.60
2407;DHT22;37709;53.480;9.688;2022-07-23T15:33:25;25.00;66.20
2407;DHT22;37709;53.480;9.688;2022-07-23T15:35:54;24.80;66.80
2407;DHT22;37709;53.480;9.688;2022-07-23T15:38:25;24.50;68.30
2407;DHT22;37709;53.480;9.688;2022-07-23T15:40:54;24.40;70.20
2407;DHT22;37709;53.480;9.688;2022-07-23T15:43:23;24.10;71.40
2407;DHT22;37709;53.480;9.688;2022-07-23T15:45:52;23.90;72.60
2407;DHT22;37709;53.480;9.688;2022-07-23T15:48:21;23.80;73.30
2407;DHT22;37709;53.480;9.688;2022-07-23T15:50:49;23.60;73.70
2407;DHT22;37709;53.480;9.688;2022-07-23T15:53:17;23.70;73.10
2407;DHT22;37709;53.480;9.688;2022-07-23T15:56:05;23.30;73.70
2407;DHT22;37709;53.480;9.688;2022-07-23T15:58:53;23.10;74.80
2407;DHT22;37709;53.480;9.688;2022-07-23T16:01:21;22.90;76.20
2407;DHT22;37709;53.480;9.688;2022-07-23T16:03:50;22.60;75.10
2407;DHT22;37709;53.480;9.688;2022-07-23T16:06:18;22.70;74.50
2407;DHT22;37709;53.480;9.688;2022-07-23T16:08:47;22.60;74.70
2407;DHT22;37709;53.480;9.688;2022-07-23T16:11:14;22.50;75.60
2407;DHT22;37709;53.480;9.688;2022-07-23T16:13:42;22.60;75.90
2407;DHT22;37709;53.480;9.688;2022-07-23T16:16:11;22.80;75.30
2407;DHT22;37709;53.480;9.688;2022-07-23T16:18:38;22.60;75.10
2407;DHT22;37709;53.480;9.688;2022-07-23T16:21:06;22.50;74.90
2407;DHT22;37709;53.480;9.688;2022-07-23T16:23:41;22.60;74.60
2407;DHT22;37709;53.480;9.688;2022-07-23T16:26:15;22.90;74.30
2407;DHT22;37709;53.480;9.688;2022-07-23T16:28:45;23.10;74.00
2407;DHT22;37709;53.480;9.688;2022-07-23T16:31:12;22.90;74.00
2407;DHT22;37709;53.480;9.688;2022-07-23T16:33:40;22.60;74.60
2407;DHT22;37709;53.480;9.688;2022-07-23T16:36:09;22.30;75.60
2407;DHT22;37709;53.480;9.688;2022-07-23T16:38:37;22.10;77.20
2407;DHT22;37709;53.480;9.688;2022-07-23T16:41:05;22.10;77.50
2407;DHT22;37709;53.480;9.688;2022-07-23T16:43:34;22.30;77.30
2407;DHT22;37709;53.480;9.688;2022-07-23T16:46:01;22.20;76.80
2407;DHT22;37709;53.480;9.688;2022-07-23T16:48:29;21.90;77.20
2407;DHT22;37709;53.480;9.688;2022-07-23T16:50:57;21.70;77.50
2407;DHT22;37709;53.480;9.688;2022-07-23T16:53:29;21.60;77.80
2407;DHT22;37709;53.480;9.688;2022-07-23T16:55:57;21.80;77.90
2407;DHT22;37709;53.480;9.688;2022-07-23T16:58:25;21.70;77.90
2407;DHT22;37709;53.480;9.688;2022-07-23T17:00:53;21.90;77.80
2407;DHT22;37709;53.480;9.688;2022-07-23T17:03:20;22.10;76.60